sensor_id;sensor_type;location;lat;lon;timestamp;P1;durP1;ratioP1;P2;durP2;ratioP2
66127;SDS011;52925;52.436;-1.952;2022-10-17T00:01:14;2.60;;;0.60;;
66127;SDS011;52925;52.436;-1.952;2022-10-17T00:02:34;1.90;;;0.60;;
66127;SDS011;52925;52.436;-1.952;2022-10-17T00:03:55;1.10;;;0.50;;
66127;SDS011;52925;52.436;-1.952;2022-10-17T00:05:15;2.67;;;0.70;;
66127;SDS011;52925;52.436;-1.952;2022-10-17T00:06:35;1.50;;;0.57;;
66127;SDS011;52925;52.436;-1.952;2022-10-17T00:07:56;5.73;;;0.87;;
66127;SDS011;52925;52.436;-1.952;2022-10-17T00:09:17;2.90;;;0.53;;
66127;SDS011;52925;52.436;-1.952;2022-10-17T00:10:37;2.90;;;0.90;;
66127;SDS011;52925;52.436;-1.952;2022-10-17T00:11:58;2.60;;;0.70;;
66127;SDS011;52925;52.436;-1.952;2022-10-17T00:13:19;3.20;;;0.60;;
66127;SDS011;52925;52.436;-1.952;2022-10-17T00:14:40;2.23;;;0.67;;
66127;SDS011;52925;52.436;-1.952;2022-10-17T00:16:01;3.53;;;0.67;;
66127;SDS011;52925;52.436;-1.952;2022-10-17T00:17:20;3.00;;;0.73;;
66127;SDS011;52925;52.436;-1.952;2022-10-17T00:18:41;1.90;;;0.53;;
66127;SDS011;52925;52.436;-1.952;2022-10-17T00:20:02;6.70;;;1.00;;
66127;SDS011;52925;52.436;-1.952;2022-10-17T00:21:23;2.03;;;0.57;;
66127;SDS011;52925;52.436;-1.952;2022-10-17T00:22:44;2.27;;;0.60;;
66127;SDS011;52925;52.436;-1.952;2022-10-17T00:24:04;2.17;;;0.90;;
66127;SDS011;52925;52.436;-1.952;2022-10-17T00:25:25;3.73;;;1.00;;
66127;SDS011;52925;52.436;-1.952;2022-10-17T00:26:45;2.63;;;0.73;;
66127;SDS011;52925;52.436;-1.952;2022-10-17T00:28:07;3.07;;;0.70;;
66127;SDS011;52925;52.436;-1.952;2022-10-17T00:29:30;1.63;;;0.50;;
66127;SDS011;52925;52.436;-1.952;2022-10-17T00:30:53;3.67;;;0.63;;
66127;SDS011;52925;52.436;-1.952;2022-10-17T00:32:14;3.07;;;0.60;;
66127;SDS011;52925;52.436;-1.952;2022-10-17T00:33:34;2.33;;;0.90;;
66127;SDS011;52925;52.436;-1.952;2022-10-17T00:34:56;2.40;;;0.90;;
66127;SDS011;52925;52.436;-1.952;2022-10-17T00:36:17;1.23;;;0.63;;
66127;SDS011;52925;52.436;-1.952;2022-10-17T00:37:40;2.40;;;0.80;;
66127;SDS011;52925;52.436;-1.952;2022-10-17T00:39:00;2.73;;;0.70;;
66127;SDS011;52925;52.436;-1.952;2022-10-17T00:40:20;2.50;;;0.60;;
66127;SDS011;52925;52.436;-1.952;2022-10-17T00:41:42;3.67;;;1.07;;
66127;SDS011;52925;52.436;-1.952;2022-10-17T00:43:03;3.23;;;0.83;;
66127;SDS011;52925;52.436;-1.952;2022-10-17T00:46:19;2.30;;;0.70;;
66127;SDS011;52925;52.436;-1.952;2022-10-17T00:47:40;1.77;;;0.57;;
66127;SDS011;52925;52.436;-1.952;2022-10-17T00:49:05;2.23;;;0.90;;
66127;SDS011;52925;52.436;-1.952;2022-10-17T00:50:28;2.50;;;0.70;;
66127;SDS011;52925;52.436;-1.952;2022-10-17T00:51:50;3.23;;;0.80;;
66127;SDS011;52925;52.436;-1.952;2022-10-17T00:53:13;1.53;;;0.60;;
66127;SDS011;52925;52.436;-1.952;2022-10-17T00:54:36;2.33;;;0.70;;
66127;SDS011;52925;52.436;-1.952;2022-10-17T00:56:00;3.43;;;0.70;;
66127;SDS011;52925;52.436;-1.952;2022-10-17T00:57:21;4.23;;;0.93;;
66127;SDS011;52925;52.436;-1.952;2022-10-17T00:58:42;2.77;;;0.70;;
66127;SDS011;52925;52.436;-1.952;2022-10-17T01:00:05;2.10;;;0.70;;
66127;SDS011;52925;52.436;-1.952;2022-10-17T01:01:28;4.77;;;1.00;;
66127;SDS011;52925;52.436;-1.952;2022-10-17T01:02:50;1.67;;;0.67;;
66127;SDS011;52925;52.436;-1.952;2022-10-17T01:04:09;3.83;;;0.80;;
66127;SDS011;52925;52.436;-1.952;2022-10-17T01:05:31;2.50;;;0.70;;
66127;SDS011;52925;52.436;-1.952;2022-10-17T01:06:53;3.60;;;0.53;;
66127;SDS011;52925;52.436;-1.952;2022-10-17T01:08:13;2.33;;;0.60;;
66127;SDS011;52925;52.436;-1.952;2022-10-17T01:09:33;2.77;;;0.57;;
66127;SDS011;52925;52.436;-1.952;2022-10-17T01:10:56;2.67;;;0.87;;
66127;SDS011;52925;52.436;-1.952;2022-10-17T01:12:24;1.83;;;0.50;;
66127;SDS011;52925;52.436;-1.952;2022-10-17T01:13:49;2.57;;;0.90;;
66127;SDS011;52925;52.436;-1.952;2022-10-17T01:15:15;3.53;;;0.67;;
66127;SDS011;52925;52.436;-1.952;2022-10-17T01:16:43;4.73;;;0.60;;
66127;SDS011;52925;52.436;-1.952;2022-10-17T01:18:12;2.30;;;0.63;;
66127;SDS011;52925;52.436;-1.952;2022-10-17T01:19:48;2.77;;;0.63;;
66127;SDS011;52925;52.436;-1.952;2022-10-17T01:21:38;1.87;;;0.80;;
66127;SDS011;52925;52.436;-1.952;2022-10-17T01:23:10;4.90;;;0.60;;
66127;SDS011;52925;52.436;-1.952;2022-10-17T01:24:49;4.13;;;0.90;;
66127;SDS011;52925;52.436;-1.952;2022-10-17T01:26:22;4.60;;;0.80;;
66127;SDS011;52925;52.436;-1.952;2022-10-17T01:27:55;2.80;;;0.83;;
66127;SDS011;52925;52.436;-1.952;2022-10-17T01:29:32;1.33;;;0.50;;
66127;SDS011;52925;52.436;-1.952;2022-10-17T01:31:07;3.80;;;0.70;;
66127;SDS011;52925;52.436;-1.952;2022-10-17T01:32:33;2.47;;;0.70;;
66127;SDS011;52925;52.436;-1.952;2022-10-17T01:33:57;3.33;;;0.70;;
66127;SDS011;52925;52.436;-1.952;2022-10-17T01:35:21;4.13;;;0.90;;
66127;SDS011;52925;52.436;-1.952;2022-10-17T01:36:47;2.17;;;0.53;;
66127;SDS011;52925;52.436;-1.952;2022-10-17T01:38:16;3.83;;;0.83;;
66127;SDS011;52925;52.436;-1.952;2022-10-17T01:39:41;2.30;;;0.67;;
66127;SDS011;52925;52.436;-1.952;2022-10-17T01:41:05;4.40;;;0.60;;
66127;SDS011;52925;52.436;-1.952;2022-10-17T01:42:32;3.27;;;0.63;;
66127;SDS011;52925;52.436;-1.952;2022-10-17T01:43:57;4.37;;;0.90;;
66127;SDS011;52925;52.436;-1.952;2022-10-17T01:45:24;4.80;;;0.83;;
66127;SDS011;52925;52.436;-1.952;2022-10-17T01:46:50;2.37;;;0.70;;
66127;SDS011;52925;52.436;-1.952;2022-10-17T01:48:19;6.10;;;1.00;;
66127;SDS011;52925;52.436;-1.952;2022-10-17T01:49:42;1.67;;;0.50;;
66127;SDS011;52925;52.436;-1.952;2022-10-17T01:51:06;3.37;;;0.77;;
66127;SDS011;52925;52.436;-1.952;2022-10-17T01:52:31;4.33;;;0.93;;
66127;SDS011;52925;52.436;-1.952;2022-10-17T01:53:57;4.57;;;0.67;;
66127;SDS011;52925;52.436;-1.952;2022-10-17T01:55:21;2.90;;;0.70;;
66127;SDS011;52925;52.436;-1.952;2022-10-17T01:56:47;12.13;;;1.00;;
66127;SDS011;52925;52.436;-1.952;2022-10-17T01:58:11;2.13;;;0.90;;
66127;SDS011;52925;52.436;-1.952;2022-10-17T01:59:37;1.73;;;0.63;;
66127;SDS011;52925;52.436;-1.952;2022-10-17T02:01:01;2.97;;;0.70;;
66127;SDS011;52925;52.436;-1.952;2022-10-17T02:02:25;3.33;;;0.77;;
66127;SDS011;52925;52.436;-1.952;2022-10-17T02:03:47;4.53;;;0.83;;
66127;SDS011;52925;52.436;-1.952;2022-10-17T02:05:09;3.47;;;0.67;;
66127;SDS011;52925;52.436;-1.952;2022-10-17T02:06:33;3.30;;;0.67;;
66127;SDS011;52925;52.436;-1.952;2022-10-17T02:07:53;3.70;;;0.90;;
66127;SDS011;52925;52.436;-1.952;2022-10-17T02:09:15;2.20;;;0.80;;
66127;SDS011;52925;52.436;-1.952;2022-10-17T02:10:38;2.70;;;0.70;;
66127;SDS011;52925;52.436;-1.952;2022-10-17T02:12:07;4.70;;;0.73;;
66127;SDS011;52925;52.436;-1.952;2022-10-17T02:13:41;2.63;;;0.60;;
66127;SDS011;52925;52.436;-1.952;2022-10-17T02:15:28;3.43;;;0.70;;
66127;SDS011;52925;52.436;-1.952;2022-10-17T02:17:01;3.37;;;0.90;;
66127;SDS011;52925;52.436;-1.952;2022-10-17T02:18:42;2.77;;;0.63;;
66127;SDS011;52925;52.436;-1.952;2022-10-17T02:20:20;3.47;;;0.70;;
66127;SDS011;52925;52.436;-1.952;2022-10-17T02:21:56;3.70;;;0.70;;
66127;SDS011;52925;52.436;-1.952;2022-10-17T02:23:23;3.50;;;0.70;;
66127;SDS011;52925;52.436;-1.952;2022-10-17T02:24:52;3.70;;;0.90;;
66127;SDS011;52925;52.436;-1.952;2022-10-17T02:26:19;3.80;;;0.90;;
66127;SDS011;52925;52.436;-1.952;2022-10-17T02:27:44;3.87;;;0.87;;
66127;SDS011;52925;52.436;-1.952;2022-10-17T02:29:12;1.17;;;0.57;;
66127;SDS011;52925;52.436;-1.952;2022-10-17T02:30:38;5.50;;;0.90;;
66127;SDS011;52925;52.436;-1.952;2022-10-17T02:32:02;4.10;;;0.93;;
66127;SDS011;52925;52.436;-1.952;2022-10-17T02:33:26;4.57;;;0.80;;
66127;SDS011;52925;52.436;-1.952;2022-10-17T02:34:52;3.23;;;0.80;;
66127;SDS011;52925;52.436;-1.952;2022-10-17T02:36:16;5.87;;;1.03;;
66127;SDS011;52925;52.436;-1.952;2022-10-17T02:37:40;3.13;;;0.70;;
66127;SDS011;52925;52.436;-1.952;2022-10-17T02:39:03;3.40;;;0.60;;
66127;SDS011;52925;52.436;-1.952;2022-10-17T02:40:26;2.77;;;0.60;;
66127;SDS011;52925;52.436;-1.952;2022-10-17T02:41:49;3.57;;;0.70;;
66127;SDS011;52925;52.436;-1.952;2022-10-17T02:43:12;6.27;;;0.90;;
66127;SDS011;52925;52.436;-1.952;2022-10-17T02:44:33;4.33;;;0.80;;
66127;SDS011;52925;52.436;-1.952;2022-10-17T02:45:55;2.63;;;0.80;;
66127;SDS011;52925;52.436;-1.952;2022-10-17T02:47:17;5.17;;;0.67;;
66127;SDS011;52925;52.436;-1.952;2022-10-17T02:48:42;3.40;;;0.60;;
66127;SDS011;52925;52.436;-1.952;2022-10-17T02:50:08;6.00;;;0.90;;
66127;SDS011;52925;52.436;-1.952;2022-10-17T02:51:32;3.50;;;0.90;;
66127;SDS011;52925;52.436;-1.952;2022-10-17T02:52:58;3.57;;;0.60;;
66127;SDS011;52925;52.436;-1.952;2022-10-17T02:54:25;4.87;;;1.27;;
66127;SDS011;52925;52.436;-1.952;2022-10-17T02:55:52;2.60;;;0.60;;
66127;SDS011;52925;52.436;-1.952;2022-10-17T02:57:18;2.57;;;0.70;;
66127;SDS011;52925;52.436;-1.952;2022-10-17T02:58:44;4.17;;;0.87;;
66127;SDS011;52925;52.436;-1.952;2022-10-17T03:00:10;2.53;;;0.67;;
66127;SDS011;52925;52.436;-1.952;2022-10-17T03:01:32;2.33;;;0.60;;
66127;SDS011;52925;52.436;-1.952;2022-10-17T03:02:56;2.10;;;0.60;;
66127;SDS011;52925;52.436;-1.952;2022-10-17T03:04:16;5.63;;;0.70;;
66127;SDS011;52925;52.436;-1.952;2022-10-17T03:05:38;4.50;;;0.70;;
66127;SDS011;52925;52.436;-1.952;2022-10-17T03:06:58;3.37;;;0.70;;
66127;SDS011;52925;52.436;-1.952;2022-10-17T03:08:19;3.00;;;0.60;;
66127;SDS011;52925;52.436;-1.952;2022-10-17T03:09:39;3.10;;;0.70;;
66127;SDS011;52925;52.436;-1.952;2022-10-17T03:11:00;4.67;;;0.70;;
66127;SDS011;52925;52.436;-1.952;2022-10-17T03:12:21;4.40;;;1.33;;
66127;SDS011;52925;52.436;-1.952;2022-10-17T03:13:41;3.10;;;0.70;;
66127;SDS011;52925;52.436;-1.952;2022-10-17T03:15:02;4.00;;;1.00;;
66127;SDS011;52925;52.436;-1.952;2022-10-17T03:16:23;2.47;;;0.50;;
66127;SDS011;52925;52.436;-1.952;2022-10-17T03:17:45;4.87;;;0.70;;
66127;SDS011;52925;52.436;-1.952;2022-10-17T03:19:05;2.37;;;0.70;;
66127;SDS011;52925;52.436;-1.952;2022-10-17T03:20:27;3.13;;;0.70;;
66127;SDS011;52925;52.436;-1.952;2022-10-17T03:21:48;3.50;;;0.70;;
66127;SDS011;52925;52.436;-1.952;2022-10-17T03:23:09;3.63;;;0.63;;
66127;SDS011;52925;52.436;-1.952;2022-10-17T03:24:29;3.00;;;0.70;;
66127;SDS011;52925;52.436;-1.952;2022-10-17T03:25:50;4.03;;;0.60;;
66127;SDS011;52925;52.436;-1.952;2022-10-17T03:27:10;2.73;;;0.77;;
66127;SDS011;52925;52.436;-1.952;2022-10-17T03:28:31;2.30;;;0.60;;
66127;SDS011;52925;52.436;-1.952;2022-10-17T03:29:51;3.67;;;0.77;;
66127;SDS011;52925;52.436;-1.952;2022-10-17T03:31:13;3.50;;;0.70;;
66127;SDS011;52925;52.436;-1.952;2022-10-17T03:32:37;6.03;;;0.97;;
66127;SDS011;52925;52.436;-1.952;2022-10-17T03:33:58;3.80;;;0.70;;
66127;SDS011;52925;52.436;-1.952;2022-10-17T03:35:19;5.57;;;0.73;;
66127;SDS011;52925;52.436;-1.952;2022-10-17T03:36:42;3.53;;;0.60;;
66127;SDS011;52925;52.436;-1.952;2022-10-17T03:38:04;3.17;;;0.70;;
66127;SDS011;52925;52.436;-1.952;2022-10-17T03:39:25;3.00;;;0.80;;
66127;SDS011;52925;52.436;-1.952;2022-10-17T03:40:53;6.00;;;1.10;;
66127;SDS011;52925;52.436;-1.952;2022-10-17T03:42:14;4.57;;;0.63;;
66127;SDS011;52925;52.436;-1.952;2022-10-17T03:43:36;5.87;;;1.23;;
66127;SDS011;52925;52.436;-1.952;2022-10-17T03:44:56;5.53;;;1.10;;
66127;SDS011;52925;52.436;-1.952;2022-10-17T03:46:17;3.17;;;0.70;;
66127;SDS011;52925;52.436;-1.952;2022-10-17T03:47:38;4.97;;;0.93;;
66127;SDS011;52925;52.436;-1.952;2022-10-17T03:48:58;2.53;;;0.60;;
66127;SDS011;52925;52.436;-1.952;2022-10-17T03:50:19;4.47;;;0.70;;
66127;SDS011;52925;52.436;-1.952;2022-10-17T03:51:40;3.77;;;0.70;;
66127;SDS011;52925;52.436;-1.952;2022-10-17T03:53:05;3.40;;;0.80;;
66127;SDS011;52925;52.436;-1.952;2022-10-17T03:54:26;3.77;;;0.80;;
66127;SDS011;52925;52.436;-1.952;2022-10-17T03:55:46;2.93;;;0.80;;
66127;SDS011;52925;52.436;-1.952;2022-10-17T03:57:07;3.23;;;0.73;;
66127;SDS011;52925;52.436;-1.952;2022-10-17T03:58:28;4.27;;;1.07;;
66127;SDS011;52925;52.436;-1.952;2022-10-17T03:59:49;2.73;;;0.77;;
66127;SDS011;52925;52.436;-1.952;2022-10-17T04:01:12;4.80;;;1.00;;
66127;SDS011;52925;52.436;-1.952;2022-10-17T04:02:33;4.40;;;0.80;;
66127;SDS011;52925;52.436;-1.952;2022-10-17T04:03:55;4.77;;;0.97;;
66127;SDS011;52925;52.436;-1.952;2022-10-17T04:05:16;2.87;;;0.60;;
66127;SDS011;52925;52.436;-1.952;2022-10-17T04:06:37;3.20;;;0.70;;
66127;SDS011;52925;52.436;-1.952;2022-10-17T04:07:58;4.20;;;0.77;;
66127;SDS011;52925;52.436;-1.952;2022-10-17T04:09:37;5.43;;;0.80;;
66127;SDS011;52925;52.436;-1.952;2022-10-17T04:11:03;4.83;;;1.13;;
66127;SDS011;52925;52.436;-1.952;2022-10-17T04:12:25;5.63;;;0.90;;
66127;SDS011;52925;52.436;-1.952;2022-10-17T04:13:45;3.90;;;0.70;;
66127;SDS011;52925;52.436;-1.952;2022-10-17T04:15:06;3.27;;;0.70;;
66127;SDS011;52925;52.436;-1.952;2022-10-17T04:16:29;3.33;;;0.70;;
66127;SDS011;52925;52.436;-1.952;2022-10-17T04:17:56;4.23;;;0.80;;
66127;SDS011;52925;52.436;-1.952;2022-10-17T04:19:17;4.17;;;0.87;;
66127;SDS011;52925;52.436;-1.952;2022-10-17T04:20:39;5.50;;;1.00;;
66127;SDS011;52925;52.436;-1.952;2022-10-17T04:21:59;3.10;;;0.90;;
66127;SDS011;52925;52.436;-1.952;2022-10-17T04:23:22;4.87;;;1.00;;
66127;SDS011;52925;52.436;-1.952;2022-10-17T04:24:45;3.23;;;0.60;;
66127;SDS011;52925;52.436;-1.952;2022-10-17T04:26:27;3.97;;;0.87;;
66127;SDS011;52925;52.436;-1.952;2022-10-17T04:27:48;2.97;;;0.90;;
66127;SDS011;52925;52.436;-1.952;2022-10-17T04:29:08;3.83;;;0.63;;
66127;SDS011;52925;52.436;-1.952;2022-10-17T04:30:29;5.47;;;0.70;;
66127;SDS011;52925;52.436;-1.952;2022-10-17T04:31:50;2.83;;;1.00;;
66127;SDS011;52925;52.436;-1.952;2022-10-17T04:33:16;4.07;;;0.77;;
66127;SDS011;52925;52.436;-1.952;2022-10-17T04:34:37;5.40;;;1.00;;
66127;SDS011;52925;52.436;-1.952;2022-10-17T04:35:58;4.20;;;1.00;;
66127;SDS011;52925;52.436;-1.952;2022-10-17T04:37:22;4.67;;;0.83;;
66127;SDS011;52925;52.436;-1.952;2022-10-17T04:38:45;3.00;;;0.80;;
66127;SDS011;52925;52.436;-1.952;2022-10-17T04:40:08;2.53;;;0.70;;
66127;SDS011;52925;52.436;-1.952;2022-10-17T04:41:30;2.77;;;0.73;;
66127;SDS011;52925;52.436;-1.952;2022-10-17T04:42:49;4.47;;;0.93;;
66127;SDS011;52925;52.436;-1.952;2022-10-17T04:44:13;3.23;;;0.80;;
66127;SDS011;52925;52.436;-1.952;2022-10-17T04:45:39;3.80;;;0.70;;
66127;SDS011;52925;52.436;-1.952;2022-10-17T04:47:00;3.53;;;0.80;;
66127;SDS011;52925;52.436;-1.952;2022-10-17T04:48:20;5.30;;;0.97;;
66127;SDS011;52925;52.436;-1.952;2022-10-17T04:49:41;5.17;;;0.73;;
66127;SDS011;52925;52.436;-1.952;2022-10-17T04:51:03;6.17;;;0.93;;
66127;SDS011;52925;52.436;-1.952;2022-10-17T04:52:32;3.43;;;0.80;;
66127;SDS011;52925;52.436;-1.952;2022-10-17T04:53:55;2.20;;;0.60;;
66127;SDS011;52925;52.436;-1.952;2022-10-17T04:55:17;4.30;;;0.80;;
66127;SDS011;52925;52.436;-1.952;2022-10-17T04:56:37;2.33;;;0.60;;
66127;SDS011;52925;52.436;-1.952;2022-10-17T04:57:58;2.93;;;0.77;;
66127;SDS011;52925;52.436;-1.952;2022-10-17T04:59:19;2.63;;;0.87;;
66127;SDS011;52925;52.436;-1.952;2022-10-17T05:00:45;5.80;;;0.90;;
66127;SDS011;52925;52.436;-1.952;2022-10-17T05:02:12;4.83;;;1.20;;
66127;SDS011;52925;52.436;-1.952;2022-10-17T05:03:33;4.70;;;0.77;;
66127;SDS011;52925;52.436;-1.952;2022-10-17T05:04:54;5.90;;;0.90;;
66127;SDS011;52925;52.436;-1.952;2022-10-17T05:06:17;5.60;;;1.20;;
66127;SDS011;52925;52.436;-1.952;2022-10-17T05:07:48;4.90;;;1.00;;
66127;SDS011;52925;52.436;-1.952;2022-10-17T05:09:15;6.13;;;1.17;;
66127;SDS011;52925;52.436;-1.952;2022-10-17T05:10:39;7.20;;;1.00;;
66127;SDS011;52925;52.436;-1.952;2022-10-17T05:12:00;4.77;;;0.87;;
66127;SDS011;52925;52.436;-1.952;2022-10-17T05:13:21;5.47;;;1.00;;
66127;SDS011;52925;52.436;-1.952;2022-10-17T05:14:41;5.60;;;1.00;;
66127;SDS011;52925;52.436;-1.952;2022-10-17T05:16:02;7.10;;;1.13;;
66127;SDS011;52925;52.436;-1.952;2022-10-17T05:17:22;5.60;;;1.00;;
66127;SDS011;52925;52.436;-1.952;2022-10-17T05:18:43;3.23;;;0.80;;
66127;SDS011;52925;52.436;-1.952;2022-10-17T05:20:07;2.70;;;0.73;;
66127;SDS011;52925;52.436;-1.952;2022-10-17T05:21:28;3.33;;;0.80;;
66127;SDS011;52925;52.436;-1.952;2022-10-17T05:22:49;3.20;;;0.57;;
66127;SDS011;52925;52.436;-1.952;2022-10-17T05:24:12;3.77;;;0.80;;
66127;SDS011;52925;52.436;-1.952;2022-10-17T05:25:33;4.47;;;0.90;;
66127;SDS011;52925;52.436;-1.952;2022-10-17T05:26:54;5.40;;;1.07;;
66127;SDS011;52925;52.436;-1.952;2022-10-17T05:28:15;3.43;;;0.80;;
66127;SDS011;52925;52.436;-1.952;2022-10-17T05:29:35;4.83;;;0.87;;
66127;SDS011;52925;52.436;-1.952;2022-10-17T05:31:05;3.70;;;0.97;;
66127;SDS011;52925;52.436;-1.952;2022-10-17T05:32:28;5.50;;;1.00;;
66127;SDS011;52925;52.436;-1.952;2022-10-17T05:33:48;6.23;;;1.00;;
66127;SDS011;52925;52.436;-1.952;2022-10-17T05:35:08;5.57;;;0.90;;
66127;SDS011;52925;52.436;-1.952;2022-10-17T05:36:29;4.57;;;0.90;;
66127;SDS011;52925;52.436;-1.952;2022-10-17T05:37:52;4.63;;;1.30;;
66127;SDS011;52925;52.436;-1.952;2022-10-17T05:39:15;3.77;;;0.80;;
66127;SDS011;52925;52.436;-1.952;2022-10-17T05:40:38;3.90;;;0.90;;
66127;SDS011;52925;52.436;-1.952;2022-10-17T05:42:00;5.70;;;1.20;;
66127;SDS011;52925;52.436;-1.952;2022-10-17T05:43:20;6.73;;;1.20;;
66127;SDS011;52925;52.436;-1.952;2022-10-17T05:44:41;14.13;;;1.40;;
66127;SDS011;52925;52.436;-1.952;2022-10-17T05:46:02;4.67;;;0.70;;
66127;SDS011;52925;52.436;-1.952;2022-10-17T05:47:25;6.30;;;0.90;;
66127;SDS011;52925;52.436;-1.952;2022-10-17T05:48:46;15.20;;;1.70;;
66127;SDS011;52925;52.436;-1.952;2022-10-17T05:50:07;10.60;;;1.33;;
66127;SDS011;52925;52.436;-1.952;2022-10-17T05:51:42;8.30;;;1.20;;
66127;SDS011;52925;52.436;-1.952;2022-10-17T05:53:03;8.13;;;1.40;;
66127;SDS011;52925;52.436;-1.952;2022-10-17T05:54:28;8.70;;;1.50;;
66127;SDS011;52925;52.436;-1.952;2022-10-17T05:55:54;6.70;;;1.10;;
66127;SDS011;52925;52.436;-1.952;2022-10-17T05:57:17;15.10;;;1.50;;
66127;SDS011;52925;52.436;-1.952;2022-10-17T05:58:38;7.33;;;1.27;;
66127;SDS011;52925;52.436;-1.952;2022-10-17T06:00:01;8.00;;;1.30;;
66127;SDS011;52925;52.436;-1.952;2022-10-17T06:01:32;8.90;;;1.33;;
66127;SDS011;52925;52.436;-1.952;2022-10-17T06:02:53;11.37;;;1.20;;
66127;SDS011;52925;52.436;-1.952;2022-10-17T06:04:16;11.23;;;1.50;;
66127;SDS011;52925;52.436;-1.952;2022-10-17T06:05:36;8.17;;;1.57;;
66127;SDS011;52925;52.436;-1.952;2022-10-17T06:06:56;7.37;;;1.53;;
66127;SDS011;52925;52.436;-1.952;2022-10-17T06:08:17;8.13;;;1.00;;
66127;SDS011;52925;52.436;-1.952;2022-10-17T06:09:37;7.90;;;1.10;;
66127;SDS011;52925;52.436;-1.952;2022-10-17T06:10:58;5.93;;;1.50;;
66127;SDS011;52925;52.436;-1.952;2022-10-17T06:12:20;8.00;;;1.10;;
66127;SDS011;52925;52.436;-1.952;2022-10-17T06:13:41;10.63;;;1.53;;
66127;SDS011;52925;52.436;-1.952;2022-10-17T06:15:10;8.13;;;1.30;;
66127;SDS011;52925;52.436;-1.952;2022-10-17T06:16:34;6.67;;;1.10;;
66127;SDS011;52925;52.436;-1.952;2022-10-17T06:17:55;9.70;;;1.47;;
66127;SDS011;52925;52.436;-1.952;2022-10-17T06:19:15;10.37;;;1.53;;
66127;SDS011;52925;52.436;-1.952;2022-10-17T06:20:38;10.73;;;1.20;;
66127;SDS011;52925;52.436;-1.952;2022-10-17T06:21:58;5.90;;;1.30;;
66127;SDS011;52925;52.436;-1.952;2022-10-17T06:23:20;6.60;;;1.20;;
66127;SDS011;52925;52.436;-1.952;2022-10-17T06:24:48;10.03;;;1.20;;
66127;SDS011;52925;52.436;-1.952;2022-10-17T06:26:10;6.33;;;1.20;;
66127;SDS011;52925;52.436;-1.952;2022-10-17T06:27:33;5.73;;;1.07;;
66127;SDS011;52925;52.436;-1.952;2022-10-17T06:28:54;7.13;;;1.27;;
66127;SDS011;52925;52.436;-1.952;2022-10-17T06:30:16;7.20;;;1.13;;
66127;SDS011;52925;52.436;-1.952;2022-10-17T06:31:37;6.50;;;1.33;;
66127;SDS011;52925;52.436;-1.952;2022-10-17T06:32:58;9.37;;;1.10;;
66127;SDS011;52925;52.436;-1.952;2022-10-17T06:34:19;7.53;;;1.60;;
66127;SDS011;52925;52.436;-1.952;2022-10-17T06:35:40;5.87;;;1.03;;
66127;SDS011;52925;52.436;-1.952;2022-10-17T06:37:01;6.87;;;1.00;;
66127;SDS011;52925;52.436;-1.952;2022-10-17T06:38:23;7.27;;;1.30;;
66127;SDS011;52925;52.436;-1.952;2022-10-17T06:39:47;6.57;;;1.37;;
66127;SDS011;52925;52.436;-1.952;2022-10-17T06:41:14;8.10;;;1.10;;
66127;SDS011;52925;52.436;-1.952;2022-10-17T06:42:38;10.00;;;1.20;;
66127;SDS011;52925;52.436;-1.952;2022-10-17T06:44:37;8.37;;;1.30;;
66127;SDS011;52925;52.436;-1.952;2022-10-17T06:46:17;7.40;;;1.40;;
66127;SDS011;52925;52.436;-1.952;2022-10-17T06:47:50;6.03;;;1.20;;
66127;SDS011;52925;52.436;-1.952;2022-10-17T06:49:32;8.47;;;1.47;;
66127;SDS011;52925;52.436;-1.952;2022-10-17T06:51:09;8.27;;;1.23;;
66127;SDS011;52925;52.436;-1.952;2022-10-17T06:52:41;9.73;;;1.60;;
66127;SDS011;52925;52.436;-1.952;2022-10-17T06:54:21;6.20;;;1.20;;
66127;SDS011;52925;52.436;-1.952;2022-10-17T06:56:03;9.20;;;1.47;;
66127;SDS011;52925;52.436;-1.952;2022-10-17T06:57:51;8.40;;;1.47;;
66127;SDS011;52925;52.436;-1.952;2022-10-17T06:59:33;7.20;;;1.30;;
66127;SDS011;52925;52.436;-1.952;2022-10-17T07:01:01;7.53;;;1.00;;
66127;SDS011;52925;52.436;-1.952;2022-10-17T07:02:23;6.10;;;1.30;;
66127;SDS011;52925;52.436;-1.952;2022-10-17T07:03:47;7.37;;;1.43;;
66127;SDS011;52925;52.436;-1.952;2022-10-17T07:05:08;6.47;;;1.00;;
66127;SDS011;52925;52.436;-1.952;2022-10-17T07:06:30;5.33;;;1.03;;
66127;SDS011;52925;52.436;-1.952;2022-10-17T07:07:57;7.80;;;1.30;;
66127;SDS011;52925;52.436;-1.952;2022-10-17T07:09:16;4.70;;;1.00;;
66127;SDS011;52925;52.436;-1.952;2022-10-17T07:10:37;7.63;;;1.80;;
66127;SDS011;52925;52.436;-1.952;2022-10-17T07:11:59;6.33;;;1.30;;
66127;SDS011;52925;52.436;-1.952;2022-10-17T07:13:23;10.13;;;1.17;;
66127;SDS011;52925;52.436;-1.952;2022-10-17T07:14:44;7.10;;;1.30;;
66127;SDS011;52925;52.436;-1.952;2022-10-17T07:16:05;7.83;;;1.30;;
66127;SDS011;52925;52.436;-1.952;2022-10-17T07:17:27;6.83;;;1.47;;
66127;SDS011;52925;52.436;-1.952;2022-10-17T07:18:48;6.37;;;1.20;;
66127;SDS011;52925;52.436;-1.952;2022-10-17T07:20:10;10.23;;;1.70;;
66127;SDS011;52925;52.436;-1.952;2022-10-17T07:21:31;7.93;;;1.20;;
66127;SDS011;52925;52.436;-1.952;2022-10-17T07:22:52;7.90;;;1.40;;
66127;SDS011;52925;52.436;-1.952;2022-10-17T07:24:12;4.37;;;1.00;;
66127;SDS011;52925;52.436;-1.952;2022-10-17T07:25:37;8.40;;;1.23;;
66127;SDS011;52925;52.436;-1.952;2022-10-17T07:27:00;6.93;;;1.30;;
66127;SDS011;52925;52.436;-1.952;2022-10-17T07:28:22;7.20;;;1.30;;
66127;SDS011;52925;52.436;-1.952;2022-10-17T07:29:45;5.90;;;1.23;;
66127;SDS011;52925;52.436;-1.952;2022-10-17T07:31:24;6.37;;;1.50;;
66127;SDS011;52925;52.436;-1.952;2022-10-17T07:32:44;7.00;;;1.27;;
66127;SDS011;52925;52.436;-1.952;2022-10-17T07:34:06;5.50;;;1.17;;
66127;SDS011;52925;52.436;-1.952;2022-10-17T07:35:26;9.63;;;1.67;;
66127;SDS011;52925;52.436;-1.952;2022-10-17T07:36:47;8.87;;;1.47;;
66127;SDS011;52925;52.436;-1.952;2022-10-17T07:38:08;7.83;;;1.33;;
66127;SDS011;52925;52.436;-1.952;2022-10-17T07:39:29;6.43;;;1.60;;
66127;SDS011;52925;52.436;-1.952;2022-10-17T07:40:54;8.87;;;1.40;;
66127;SDS011;52925;52.436;-1.952;2022-10-17T07:42:14;5.87;;;1.30;;
66127;SDS011;52925;52.436;-1.952;2022-10-17T07:43:37;6.80;;;1.30;;
66127;SDS011;52925;52.436;-1.952;2022-10-17T07:45:01;8.57;;;1.57;;
66127;SDS011;52925;52.436;-1.952;2022-10-17T07:46:23;8.87;;;1.77;;
66127;SDS011;52925;52.436;-1.952;2022-10-17T07:47:44;5.67;;;1.10;;
66127;SDS011;52925;52.436;-1.952;2022-10-17T07:49:07;4.87;;;0.83;;
66127;SDS011;52925;52.436;-1.952;2022-10-17T07:50:28;8.43;;;1.30;;
66127;SDS011;52925;52.436;-1.952;2022-10-17T07:51:49;7.03;;;1.27;;
66127;SDS011;52925;52.436;-1.952;2022-10-17T07:53:10;10.80;;;1.40;;
66127;SDS011;52925;52.436;-1.952;2022-10-17T07:54:31;7.53;;;1.30;;
66127;SDS011;52925;52.436;-1.952;2022-10-17T07:55:52;7.50;;;1.20;;
66127;SDS011;52925;52.436;-1.952;2022-10-17T07:57:13;6.77;;;1.07;;
66127;SDS011;52925;52.436;-1.952;2022-10-17T07:58:34;12.83;;;1.90;;
66127;SDS011;52925;52.436;-1.952;2022-10-17T07:59:56;9.40;;;1.70;;
66127;SDS011;52925;52.436;-1.952;2022-10-17T08:01:17;10.23;;;1.57;;
66127;SDS011;52925;52.436;-1.952;2022-10-17T08:02:38;9.20;;;1.77;;
66127;SDS011;52925;52.436;-1.952;2022-10-17T08:03:59;7.20;;;1.30;;
66127;SDS011;52925;52.436;-1.952;2022-10-17T08:05:20;9.73;;;1.47;;
66127;SDS011;52925;52.436;-1.952;2022-10-17T08:06:40;8.33;;;1.33;;
66127;SDS011;52925;52.436;-1.952;2022-10-17T08:08:01;8.70;;;1.40;;
66127;SDS011;52925;52.436;-1.952;2022-10-17T08:09:22;7.63;;;1.40;;
66127;SDS011;52925;52.436;-1.952;2022-10-17T08:10:43;6.33;;;1.20;;
66127;SDS011;52925;52.436;-1.952;2022-10-17T08:12:04;9.73;;;1.57;;
66127;SDS011;52925;52.436;-1.952;2022-10-17T08:13:25;11.63;;;1.70;;
66127;SDS011;52925;52.436;-1.952;2022-10-17T08:14:44;9.13;;;1.63;;
66127;SDS011;52925;52.436;-1.952;2022-10-17T08:16:09;9.93;;;1.77;;
66127;SDS011;52925;52.436;-1.952;2022-10-17T08:17:32;5.23;;;1.10;;
66127;SDS011;52925;52.436;-1.952;2022-10-17T08:18:53;8.47;;;1.50;;